sensor_id;sensor_type;location;lat;lon;timestamp;P1;durP1;ratioP1;P2;durP2;ratioP2
50815;SDS011;39717;47.324;8.788;2022-11-20T00:01:55;7.33;;;4.83;;
50815;SDS011;39717;47.324;8.788;2022-11-20T00:04:21;7.60;;;5.17;;
50815;SDS011;39717;47.324;8.788;2022-11-20T00:06:48;8.40;;;5.70;;
50815;SDS011;39717;47.324;8.788;2022-11-20T00:09:17;9.27;;;5.37;;
50815;SDS011;39717;47.324;8.788;2022-11-20T00:11:43;6.57;;;5.10;;
50815;SDS011;39717;47.324;8.788;2022-11-20T00:14:09;8.27;;;5.70;;
50815;SDS011;39717;47.324;8.788;2022-11-20T00:16:35;6.63;;;4.90;;
50815;SDS011;39717;47.324;8.788;2022-11-20T00:19:02;7.80;;;5.37;;
50815;SDS011;39717;47.324;8.788;2022-11-20T00:21:29;6.77;;;4.83;;
50815;SDS011;39717;47.324;8.788;2022-11-20T00:23:56;6.30;;;5.03;;
50815;SDS011;39717;47.324;8.788;2022-11-20T00:26:23;5.90;;;4.50;;
50815;SDS011;39717;47.324;8.788;2022-11-20T00:28:51;7.23;;;4.90;;
50815;SDS011;39717;47.324;8.788;2022-11-20T00:31:17;7.50;;;5.07;;
50815;SDS011;39717;47.324;8.788;2022-11-20T00:33:44;7.03;;;4.53;;
50815;SDS011;39717;47.324;8.788;2022-11-20T00:36:12;8.13;;;4.97;;
50815;SDS011;39717;47.324;8.788;2022-11-20T00:38:39;6.90;;;4.77;;
50815;SDS011;39717;47.324;8.788;2022-11-20T00:41:07;9.37;;;8.33;;
50815;SDS011;39717;47.324;8.788;2022-11-20T00:43:34;25.73;;;21.43;;
50815;SDS011;39717;47.324;8.788;2022-11-20T00:48:29;11.23;;;7.20;;
50815;SDS011;39717;47.324;8.788;2022-11-20T00:50:56;10.60;;;6.23;;
50815;SDS011;39717;47.324;8.788;2022-11-20T00:53:22;8.53;;;5.73;;
50815;SDS011;39717;47.324;8.788;2022-11-20T00:56:02;8.47;;;5.53;;
50815;SDS011;39717;47.324;8.788;2022-11-20T00:58:31;6.83;;;5.77;;
50815;SDS011;39717;47.324;8.788;2022-11-20T01:01:05;11.03;;;5.73;;
50815;SDS011;39717;47.324;8.788;2022-11-20T01:03:32;8.53;;;4.97;;
50815;SDS011;39717;47.324;8.788;2022-11-20T01:06:02;8.17;;;5.33;;
50815;SDS011;39717;47.324;8.788;2022-11-20T01:08:30;8.63;;;5.80;;
50815;SDS011;39717;47.324;8.788;2022-11-20T01:11:04;8.37;;;5.03;;
50815;SDS011;39717;47.324;8.788;2022-11-20T01:13:33;9.40;;;5.57;;
50815;SDS011;39717;47.324;8.788;2022-11-20T01:16:11;8.57;;;5.50;;
50815;SDS011;39717;47.324;8.788;2022-11-20T01:18:38;9.23;;;4.97;;
50815;SDS011;39717;47.324;8.788;2022-11-20T01:21:05;8.07;;;5.27;;
50815;SDS011;39717;47.324;8.788;2022-11-20T01:23:36;7.30;;;5.40;;
50815;SDS011;39717;47.324;8.788;2022-11-20T01:26:06;11.17;;;5.70;;
50815;SDS011;39717;47.324;8.788;2022-11-20T01:28:33;10.40;;;5.43;;
50815;SDS011;39717;47.324;8.788;2022-11-20T01:30:59;9.57;;;5.30;;
50815;SDS011;39717;47.324;8.788;2022-11-20T01:33:27;7.50;;;5.13;;
50815;SDS011;39717;47.324;8.788;2022-11-20T01:35:53;6.87;;;5.30;;
50815;SDS011;39717;47.324;8.788;2022-11-20T01:38:19;8.27;;;5.10;;
50815;SDS011;39717;47.324;8.788;2022-11-20T01:40:54;8.97;;;5.63;;
50815;SDS011;39717;47.324;8.788;2022-11-20T01:43:20;6.90;;;4.93;;
50815;SDS011;39717;47.324;8.788;2022-11-20T01:48:13;10.00;;;6.67;;
50815;SDS011;39717;47.324;8.788;2022-11-20T01:50:40;9.57;;;5.80;;
50815;SDS011;39717;47.324;8.788;2022-11-20T01:53:08;9.57;;;5.70;;
50815;SDS011;39717;47.324;8.788;2022-11-20T01:55:39;7.83;;;6.20;;
50815;SDS011;39717;47.324;8.788;2022-11-20T01:58:06;8.83;;;5.93;;
50815;SDS011;39717;47.324;8.788;2022-11-20T02:00:33;9.53;;;5.63;;
50815;SDS011;39717;47.324;8.788;2022-11-20T02:03:00;8.60;;;5.97;;
50815;SDS011;39717;47.324;8.788;2022-11-20T02:05:32;9.63;;;6.33;;
50815;SDS011;39717;47.324;8.788;2022-11-20T02:08:01;7.90;;;5.83;;
50815;SDS011;39717;47.324;8.788;2022-11-20T02:10:28;7.77;;;5.63;;
50815;SDS011;39717;47.324;8.788;2022-11-20T02:12:55;7.80;;;5.73;;
50815;SDS011;39717;47.324;8.788;2022-11-20T02:15:41;8.87;;;5.63;;
50815;SDS011;39717;47.324;8.788;2022-11-20T02:18:08;8.90;;;6.17;;
50815;SDS011;39717;47.324;8.788;2022-11-20T02:20:36;9.10;;;5.80;;
50815;SDS011;39717;47.324;8.788;2022-11-20T02:25:30;8.90;;;5.93;;
50815;SDS011;39717;47.324;8.788;2022-11-20T02:27:58;6.67;;;5.30;;
50815;SDS011;39717;47.324;8.788;2022-11-20T02:30:24;7.97;;;5.70;;
50815;SDS011;39717;47.324;8.788;2022-11-20T02:32:50;7.43;;;5.77;;
50815;SDS011;39717;47.324;8.788;2022-11-20T02:38:07;7.07;;;5.47;;
50815;SDS011;39717;47.324;8.788;2022-11-20T02:40:33;8.80;;;6.10;;
50815;SDS011;39717;47.324;8.788;2022-11-20T02:42:59;7.37;;;5.63;;
50815;SDS011;39717;47.324;8.788;2022-11-20T02:45:25;8.17;;;5.80;;
50815;SDS011;39717;47.324;8.788;2022-11-20T02:47:52;9.07;;;5.67;;
50815;SDS011;39717;47.324;8.788;2022-11-20T02:50:19;8.50;;;5.17;;
50815;SDS011;39717;47.324;8.788;2022-11-20T02:52:45;6.00;;;4.97;;
50815;SDS011;39717;47.324;8.788;2022-11-20T02:55:11;6.87;;;4.67;;
50815;SDS011;39717;47.324;8.788;2022-11-20T02:57:37;8.00;;;4.73;;
50815;SDS011;39717;47.324;8.788;2022-11-20T03:00:04;6.03;;;4.43;;
50815;SDS011;39717;47.324;8.788;2022-11-20T03:02:32;10.40;;;4.50;;
50815;SDS011;39717;47.324;8.788;2022-11-20T03:04:58;6.10;;;5.00;;
50815;SDS011;39717;47.324;8.788;2022-11-20T03:07:24;8.53;;;5.07;;
50815;SDS011;39717;47.324;8.788;2022-11-20T03:09:51;8.87;;;4.87;;
50815;SDS011;39717;47.324;8.788;2022-11-20T03:12:19;7.00;;;5.40;;
50815;SDS011;39717;47.324;8.788;2022-11-20T03:14:46;7.37;;;5.10;;
50815;SDS011;39717;47.324;8.788;2022-11-20T03:17:12;8.70;;;5.33;;
50815;SDS011;39717;47.324;8.788;2022-11-20T03:19:38;7.27;;;5.07;;
50815;SDS011;39717;47.324;8.788;2022-11-20T03:22:04;6.03;;;4.53;;
50815;SDS011;39717;47.324;8.788;2022-11-20T03:24:31;9.07;;;5.17;;
50815;SDS011;39717;47.324;8.788;2022-11-20T03:26:57;7.77;;;5.57;;
50815;SDS011;39717;47.324;8.788;2022-11-20T03:29:23;8.07;;;5.50;;
50815;SDS011;39717;47.324;8.788;2022-11-20T03:31:49;10.53;;;5.60;;
50815;SDS011;39717;47.324;8.788;2022-11-20T03:34:17;9.03;;;5.57;;
50815;SDS011;39717;47.324;8.788;2022-11-20T03:36:43;6.50;;;4.90;;
50815;SDS011;39717;47.324;8.788;2022-11-20T03:39:09;7.07;;;5.23;;
50815;SDS011;39717;47.324;8.788;2022-11-20T03:41:36;8.60;;;5.23;;
50815;SDS011;39717;47.324;8.788;2022-11-20T03:44:03;9.87;;;5.13;;
50815;SDS011;39717;47.324;8.788;2022-11-20T03:46:30;8.77;;;5.50;;
50815;SDS011;39717;47.324;8.788;2022-11-20T03:48:57;8.03;;;5.50;;
50815;SDS011;39717;47.324;8.788;2022-11-20T03:51:24;10.53;;;5.50;;
50815;SDS011;39717;47.324;8.788;2022-11-20T03:53:53;6.37;;;4.93;;
50815;SDS011;39717;47.324;8.788;2022-11-20T03:56:22;9.30;;;5.40;;
50815;SDS011;39717;47.324;8.788;2022-11-20T03:58:49;10.87;;;6.57;;
50815;SDS011;39717;47.324;8.788;2022-11-20T04:01:18;8.37;;;5.33;;
50815;SDS011;39717;47.324;8.788;2022-11-20T04:03:44;9.03;;;5.43;;
50815;SDS011;39717;47.324;8.788;2022-11-20T04:06:18;9.90;;;6.50;;
50815;SDS011;39717;47.324;8.788;2022-11-20T04:08:45;8.50;;;6.03;;
50815;SDS011;39717;47.324;8.788;2022-11-20T04:11:15;10.00;;;5.80;;
50815;SDS011;39717;47.324;8.788;2022-11-20T04:13:42;9.50;;;5.70;;
50815;SDS011;39717;47.324;8.788;2022-11-20T04:16:09;8.73;;;6.00;;
50815;SDS011;39717;47.324;8.788;2022-11-20T04:18:36;8.17;;;5.77;;
50815;SDS011;39717;47.324;8.788;2022-11-20T04:21:03;9.53;;;5.40;;
50815;SDS011;39717;47.324;8.788;2022-11-20T04:23:30;8.43;;;5.57;;
50815;SDS011;39717;47.324;8.788;2022-11-20T04:26:03;8.27;;;5.60;;
50815;SDS011;39717;47.324;8.788;2022-11-20T04:28:30;8.80;;;5.90;;
50815;SDS011;39717;47.324;8.788;2022-11-20T04:31:03;8.67;;;6.00;;
50815;SDS011;39717;47.324;8.788;2022-11-20T04:33:31;10.03;;;6.53;;
50815;SDS011;39717;47.324;8.788;2022-11-20T04:36:01;10.07;;;5.90;;
50815;SDS011;39717;47.324;8.788;2022-11-20T04:38:28;9.80;;;6.33;;
50815;SDS011;39717;47.324;8.788;2022-11-20T04:40:58;9.43;;;6.07;;
50815;SDS011;39717;47.324;8.788;2022-11-20T04:43:24;10.83;;;5.80;;
50815;SDS011;39717;47.324;8.788;2022-11-20T04:45:54;10.90;;;5.97;;
50815;SDS011;39717;47.324;8.788;2022-11-20T04:48:20;12.07;;;5.80;;
50815;SDS011;39717;47.324;8.788;2022-11-20T04:50:47;9.37;;;6.07;;
50815;SDS011;39717;47.324;8.788;2022-11-20T04:53:14;15.13;;;5.83;;
50815;SDS011;39717;47.324;8.788;2022-11-20T04:55:41;10.43;;;5.93;;
50815;SDS011;39717;47.324;8.788;2022-11-20T04:58:07;10.03;;;5.93;;
50815;SDS011;39717;47.324;8.788;2022-11-20T05:00:33;8.80;;;5.37;;
50815;SDS011;39717;47.324;8.788;2022-11-20T05:02:59;10.87;;;6.17;;
50815;SDS011;39717;47.324;8.788;2022-11-20T05:05:26;7.37;;;5.60;;
50815;SDS011;39717;47.324;8.788;2022-11-20T05:07:52;10.53;;;5.83;;
50815;SDS011;39717;47.324;8.788;2022-11-20T05:10:21;7.03;;;5.20;;
50815;SDS011;39717;47.324;8.788;2022-11-20T05:12:47;7.37;;;5.87;;
50815;SDS011;39717;47.324;8.788;2022-11-20T05:15:13;7.57;;;5.93;;
50815;SDS011;39717;47.324;8.788;2022-11-20T05:17:39;8.37;;;5.60;;
50815;SDS011;39717;47.324;8.788;2022-11-20T05:20:05;5.80;;;4.73;;
50815;SDS011;39717;47.324;8.788;2022-11-20T05:22:33;9.83;;;5.17;;
50815;SDS011;39717;47.324;8.788;2022-11-20T05:24:59;7.77;;;5.30;;
50815;SDS011;39717;47.324;8.788;2022-11-20T05:27:25;7.07;;;4.57;;
50815;SDS011;39717;47.324;8.788;2022-11-20T05:29:51;12.30;;;5.70;;
50815;SDS011;39717;47.324;8.788;2022-11-20T05:32:17;7.07;;;4.70;;
50815;SDS011;39717;47.324;8.788;2022-11-20T05:34:50;7.23;;;5.03;;
50815;SDS011;39717;47.324;8.788;2022-11-20T05:37:16;6.20;;;4.93;;
50815;SDS011;39717;47.324;8.788;2022-11-20T05:39:42;7.70;;;5.23;;
50815;SDS011;39717;47.324;8.788;2022-11-20T05:42:08;5.53;;;4.93;;
50815;SDS011;39717;47.324;8.788;2022-11-20T05:44:53;7.20;;;5.23;;
50815;SDS011;39717;47.324;8.788;2022-11-20T05:47:19;5.93;;;4.70;;
50815;SDS011;39717;47.324;8.788;2022-11-20T05:49:45;6.00;;;5.30;;
50815;SDS011;39717;47.324;8.788;2022-11-20T05:52:11;7.97;;;5.10;;
50815;SDS011;39717;47.324;8.788;2022-11-20T05:54:37;8.43;;;5.30;;
50815;SDS011;39717;47.324;8.788;2022-11-20T05:57:05;7.57;;;5.27;;
50815;SDS011;39717;47.324;8.788;2022-11-20T05:59:31;8.07;;;5.30;;
50815;SDS011;39717;47.324;8.788;2022-11-20T06:01:58;10.23;;;5.70;;
50815;SDS011;39717;47.324;8.788;2022-11-20T06:04:24;7.60;;;5.60;;
50815;SDS011;39717;47.324;8.788;2022-11-20T06:06:50;10.00;;;5.83;;
50815;SDS011;39717;47.324;8.788;2022-11-20T06:09:18;6.67;;;5.50;;
50815;SDS011;39717;47.324;8.788;2022-11-20T06:11:45;6.17;;;5.17;;
50815;SDS011;39717;47.324;8.788;2022-11-20T06:14:11;6.37;;;4.83;;
50815;SDS011;39717;47.324;8.788;2022-11-20T06:16:38;7.43;;;4.73;;
50815;SDS011;39717;47.324;8.788;2022-11-20T06:19:05;6.67;;;4.60;;
50815;SDS011;39717;47.324;8.788;2022-11-20T06:21:31;5.87;;;4.30;;
50815;SDS011;39717;47.324;8.788;2022-11-20T06:23:57;5.83;;;4.33;;
50815;SDS011;39717;47.324;8.788;2022-11-20T06:26:24;6.37;;;4.80;;
50815;SDS011;39717;47.324;8.788;2022-11-20T06:28:51;9.20;;;4.67;;
50815;SDS011;39717;47.324;8.788;2022-11-20T06:31:19;5.63;;;3.93;;
50815;SDS011;39717;47.324;8.788;2022-11-20T06:33:45;5.10;;;4.10;;
50815;SDS011;39717;47.324;8.788;2022-11-20T06:36:13;5.17;;;3.60;;
50815;SDS011;39717;47.324;8.788;2022-11-20T06:38:41;4.80;;;3.80;;
50815;SDS011;39717;47.324;8.788;2022-11-20T06:43:58;5.50;;;4.00;;
50815;SDS011;39717;47.324;8.788;2022-11-20T06:46:24;4.43;;;3.23;;
50815;SDS011;39717;47.324;8.788;2022-11-20T06:48:50;4.30;;;3.60;;
50815;SDS011;39717;47.324;8.788;2022-11-20T06:51:17;5.23;;;3.33;;
50815;SDS011;39717;47.324;8.788;2022-11-20T06:53:44;5.67;;;4.17;;
50815;SDS011;39717;47.324;8.788;2022-11-20T06:56:10;4.37;;;3.63;;
50815;SDS011;39717;47.324;8.788;2022-11-20T06:58:36;5.40;;;3.40;;
50815;SDS011;39717;47.324;8.788;2022-11-20T07:01:06;4.33;;;3.93;;
50815;SDS011;39717;47.324;8.788;2022-11-20T07:03:33;5.07;;;3.83;;
50815;SDS011;39717;47.324;8.788;2022-11-20T07:05:59;5.77;;;3.77;;
50815;SDS011;39717;47.324;8.788;2022-11-20T07:08:26;4.87;;;4.03;;
50815;SDS011;39717;47.324;8.788;2022-11-20T07:10:52;4.63;;;3.63;;
50815;SDS011;39717;47.324;8.788;2022-11-20T07:13:18;4.00;;;3.60;;
50815;SDS011;39717;47.324;8.788;2022-11-20T07:15:44;6.07;;;4.57;;
50815;SDS011;39717;47.324;8.788;2022-11-20T07:18:11;4.60;;;4.20;;
50815;SDS011;39717;47.324;8.788;2022-11-20T07:20:38;6.23;;;3.93;;
50815;SDS011;39717;47.324;8.788;2022-11-20T07:23:05;3.83;;;3.43;;
50815;SDS011;39717;47.324;8.788;2022-11-20T07:25:31;4.30;;;3.90;;
50815;SDS011;39717;47.324;8.788;2022-11-20T07:27:58;4.70;;;3.57;;
50815;SDS011;39717;47.324;8.788;2022-11-20T07:30:25;4.57;;;3.73;;
50815;SDS011;39717;47.324;8.788;2022-11-20T07:32:51;4.13;;;3.70;;
50815;SDS011;39717;47.324;8.788;2022-11-20T07:35:18;3.87;;;3.50;;
50815;SDS011;39717;47.324;8.788;2022-11-20T07:37:45;4.53;;;3.53;;
50815;SDS011;39717;47.324;8.788;2022-11-20T07:40:15;4.60;;;3.40;;
50815;SDS011;39717;47.324;8.788;2022-11-20T07:42:51;5.07;;;3.30;;
50815;SDS011;39717;47.324;8.788;2022-11-20T07:45:18;4.57;;;3.67;;
50815;SDS011;39717;47.324;8.788;2022-11-20T07:47:45;4.20;;;3.60;;
50815;SDS011;39717;47.324;8.788;2022-11-20T07:50:12;4.67;;;3.63;;
50815;SDS011;39717;47.324;8.788;2022-11-20T07:52:38;4.37;;;3.97;;
50815;SDS011;39717;47.324;8.788;2022-11-20T07:55:12;4.53;;;3.43;;
50815;SDS011;39717;47.324;8.788;2022-11-20T07:57:39;3.77;;;3.40;;
50815;SDS011;39717;47.324;8.788;2022-11-20T08:00:05;5.73;;;3.20;;
50815;SDS011;39717;47.324;8.788;2022-11-20T08:02:44;3.87;;;3.23;;
50815;SDS011;39717;47.324;8.788;2022-11-20T08:05:10;4.40;;;4.00;;
50815;SDS011;39717;47.324;8.788;2022-11-20T08:07:40;5.10;;;3.23;;
50815;SDS011;39717;47.324;8.788;2022-11-20T08:10:07;4.63;;;3.57;;
50815;SDS011;39717;47.324;8.788;2022-11-20T08:12:34;4.13;;;2.90;;
50815;SDS011;39717;47.324;8.788;2022-11-20T08:15:20;3.27;;;2.67;;
50815;SDS011;39717;47.324;8.788;2022-11-20T08:17:48;2.97;;;2.67;;
50815;SDS011;39717;47.324;8.788;2022-11-20T08:20:15;3.03;;;2.73;;
50815;SDS011;39717;47.324;8.788;2022-11-20T08:22:41;3.23;;;2.93;;
50815;SDS011;39717;47.324;8.788;2022-11-20T08:25:07;3.00;;;2.67;;
50815;SDS011;39717;47.324;8.788;2022-11-20T08:27:33;3.80;;;2.47;;
50815;SDS011;39717;47.324;8.788;2022-11-20T08:30:00;2.77;;;2.40;;
50815;SDS011;39717;47.324;8.788;2022-11-20T08:32:26;2.60;;;2.40;;
50815;SDS011;39717;47.324;8.788;2022-11-20T08:34:53;2.90;;;2.60;;
50815;SDS011;39717;47.324;8.788;2022-11-20T08:37:19;3.90;;;2.40;;
50815;SDS011;39717;47.324;8.788;2022-11-20T08:39:45;2.23;;;2.03;;
50815;SDS011;39717;47.324;8.788;2022-11-20T08:42:11;2.60;;;2.03;;
50815;SDS011;39717;47.324;8.788;2022-11-20T08:44:38;2.80;;;2.13;;
50815;SDS011;39717;47.324;8.788;2022-11-20T08:47:04;4.00;;;2.33;;
50815;SDS011;39717;47.324;8.788;2022-11-20T08:49:30;1.77;;;1.67;;
50815;SDS011;39717;47.324;8.788;2022-11-20T08:51:56;2.00;;;1.80;;
50815;SDS011;39717;47.324;8.788;2022-11-20T08:54:23;2.30;;;2.03;;
50815;SDS011;39717;47.324;8.788;2022-11-20T08:56:49;4.07;;;1.93;;
50815;SDS011;39717;47.324;8.788;2022-11-20T08:59:15;1.50;;;1.40;;
50815;SDS011;39717;47.324;8.788;2022-11-20T09:01:41;2.40;;;1.60;;
50815;SDS011;39717;47.324;8.788;2022-11-20T09:04:08;1.80;;;1.70;;
50815;SDS011;39717;47.324;8.788;2022-11-20T09:06:34;1.60;;;1.50;;
50815;SDS011;39717;47.324;8.788;2022-11-20T09:09:01;1.57;;;1.47;;
50815;SDS011;39717;47.324;8.788;2022-11-20T09:11:27;1.70;;;1.60;;
50815;SDS011;39717;47.324;8.788;2022-11-20T09:13:53;2.93;;;1.90;;
50815;SDS011;39717;47.324;8.788;2022-11-20T09:16:19;4.00;;;1.83;;
50815;SDS011;39717;47.324;8.788;2022-11-20T09:18:45;1.60;;;1.50;;
50815;SDS011;39717;47.324;8.788;2022-11-20T09:21:12;2.23;;;1.50;;
50815;SDS011;39717;47.324;8.788;2022-11-20T09:23:39;1.83;;;1.60;;
50815;SDS011;39717;47.324;8.788;2022-11-20T09:26:12;1.70;;;1.60;;
50815;SDS011;39717;47.324;8.788;2022-11-20T09:28:39;2.00;;;1.63;;
50815;SDS011;39717;47.324;8.788;2022-11-20T09:31:09;2.60;;;1.60;;
50815;SDS011;39717;47.324;8.788;2022-11-20T09:33:35;4.20;;;2.10;;
50815;SDS011;39717;47.324;8.788;2022-11-20T09:36:01;2.77;;;1.57;;
50815;SDS011;39717;47.324;8.788;2022-11-20T09:38:28;1.70;;;1.60;;
50815;SDS011;39717;47.324;8.788;2022-11-20T09:41:04;2.40;;;1.53;;
50815;SDS011;39717;47.324;8.788;2022-11-20T09:43:49;1.57;;;1.40;;
50815;SDS011;39717;47.324;8.788;2022-11-20T09:46:28;1.57;;;1.40;;
50815;SDS011;39717;47.324;8.788;2022-11-20T09:49:40;2.27;;;1.80;;
50815;SDS011;39717;47.324;8.788;2022-11-20T09:57:13;1.73;;;1.63;;
50815;SDS011;39717;47.324;8.788;2022-11-20T09:59:50;4.47;;;1.83;;
50815;SDS011;39717;47.324;8.788;2022-11-20T10:05:39;1.87;;;1.50;;
50815;SDS011;39717;47.324;8.788;2022-11-20T10:07:42;1.40;;;1.30;;
50815;SDS011;39717;47.324;8.788;2022-11-20T10:10:27;1.40;;;1.30;;
50815;SDS011;39717;47.324;8.788;2022-11-20T10:15:33;2.20;;;1.50;;
50815;SDS011;39717;47.324;8.788;2022-11-20T10:24:21;1.80;;;1.50;;
50815;SDS011;39717;47.324;8.788;2022-11-20T10:26:51;1.93;;;1.40;;
50815;SDS011;39717;47.324;8.788;2022-11-20T10:29:20;1.90;;;1.80;;
50815;SDS011;39717;47.324;8.788;2022-11-20T10:31:50;3.03;;;1.97;;
50815;SDS011;39717;47.324;8.788;2022-11-20T10:34:29;2.00;;;1.80;;
50815;SDS011;39717;47.324;8.788;2022-11-20T10:37:40;3.37;;;2.10;;
50815;SDS011;39717;47.324;8.788;2022-11-20T10:42:17;3.83;;;2.20;;
50815;SDS011;39717;47.324;8.788;2022-11-20T10:44:51;2.30;;;2.10;;
50815;SDS011;39717;47.324;8.788;2022-11-20T10:47:28;2.30;;;1.90;;
50815;SDS011;39717;47.324;8.788;2022-11-20T10:49:56;1.87;;;1.50;;
50815;SDS011;39717;47.324;8.788;2022-11-20T10:52:37;2.10;;;1.60;;
50815;SDS011;39717;47.324;8.788;2022-11-20T10:55:30;4.83;;;1.70;;
50815;SDS011;39717;47.324;8.788;2022-11-20T10:57:58;1.87;;;1.60;;
50815;SDS011;39717;47.324;8.788;2022-11-20T11:00:26;1.60;;;1.47;;
50815;SDS011;39717;47.324;8.788;2022-11-20T11:02:53;2.47;;;1.50;;
50815;SDS011;39717;47.324;8.788;2022-11-20T11:07:49;2.83;;;1.67;;
50815;SDS011;39717;47.324;8.788;2022-11-20T11:10:24;2.33;;;1.50;;
50815;SDS011;39717;47.324;8.788;2022-11-20T11:12:50;2.17;;;1.47;;
50815;SDS011;39717;47.324;8.788;2022-11-20T11:15:36;0.93;;;0.93;;
50815;SDS011;39717;47.324;8.788;2022-11-20T11:18:03;1.87;;;1.40;;
50815;SDS011;39717;47.324;8.788;2022-11-20T11:20:32;1.90;;;1.80;;
50815;SDS011;39717;47.324;8.788;2022-11-20T11:22:58;4.97;;;1.90;;
50815;SDS011;39717;47.324;8.788;2022-11-20T11:25:32;1.87;;;1.77;;
50815;SDS011;39717;47.324;8.788;2022-11-20T11:27:59;2.77;;;1.93;;
50815;SDS011;39717;47.324;8.788;2022-11-20T11:30:27;1.80;;;1.70;;
50815;SDS011;39717;47.324;8.788;2022-11-20T11:33:05;1.20;;;1.10;;
50815;SDS011;39717;47.324;8.788;2022-11-20T11:35:32;1.97;;;1.60;;
50815;SDS011;39717;47.324;8.788;2022-11-20T11:38:05;2.00;;;1.53;;
50815;SDS011;39717;47.324;8.788;2022-11-20T11:40:33;1.60;;;1.50;;
50815;SDS011;39717;47.324;8.788;2022-11-20T11:43:02;1.90;;;1.13;;
50815;SDS011;39717;47.324;8.788;2022-11-20T11:45:30;1.70;;;1.60;;
50815;SDS011;39717;47.324;8.788;2022-11-20T11:48:00;2.80;;;1.70;;
50815;SDS011;39717;47.324;8.788;2022-11-20T11:50:29;1.90;;;1.30;;
50815;SDS011;39717;47.324;8.788;2022-11-20T11:52:58;2.10;;;1.90;;
50815;SDS011;39717;47.324;8.788;2022-11-20T11:55:28;2.50;;;1.77;;
50815;SDS011;39717;47.324;8.788;2022-11-20T11:58:06;2.53;;;2.00;;
50815;SDS011;39717;47.324;8.788;2022-11-20T12:00:32;2.17;;;1.40;;
50815;SDS011;39717;47.324;8.788;2022-11-20T12:03:11;1.93;;;1.40;;
50815;SDS011;39717;47.324;8.788;2022-11-20T12:05:41;3.07;;;1.40;;
50815;SDS011;39717;47.324;8.788;2022-11-20T12:16:36;2.20;;;1.07;;
50815;SDS011;39717;47.324;8.788;2022-11-20T12:19:04;1.07;;;1.03;;
50815;SDS011;39717;47.324;8.788;2022-11-20T12:21:46;1.30;;;1.20;;
50815;SDS011;39717;47.324;8.788;2022-11-20T12:27:02;1.40;;;1.30;;
50815;SDS011;39717;47.324;8.788;2022-11-20T12:29:45;1.30;;;1.20;;
50815;SDS011;39717;47.324;8.788;2022-11-20T12:34:55;0.90;;;0.90;;
50815;SDS011;39717;47.324;8.788;2022-11-20T12:43:27;1.40;;;1.30;;
50815;SDS011;39717;47.324;8.788;2022-11-20T12:46:16;1.43;;;1.33;;
50815;SDS011;39717;47.324;8.788;2022-11-20T12:51:30;1.40;;;1.30;;
50815;SDS011;39717;47.324;8.788;2022-11-20T12:56:42;1.57;;;1.47;;
50815;SDS011;39717;47.324;8.788;2022-11-20T13:01:40;1.63;;;1.53;;
50815;SDS011;39717;47.324;8.788;2022-11-20T13:06:52;1.70;;;1.60;;
50815;SDS011;39717;47.324;8.788;2022-11-20T13:09:20;2.57;;;1.50;;
50815;SDS011;39717;47.324;8.788;2022-11-20T13:12:02;1.50;;;1.40;;
50815;SDS011;39717;47.324;8.788;2022-11-20T13:14:36;2.20;;;1.40;;
50815;SDS011;39717;47.324;8.788;2022-11-20T13:17:11;1.50;;;1.40;;
50815;SDS011;39717;47.324;8.788;2022-11-20T13:19:40;4.60;;;1.73;;
50815;SDS011;39717;47.324;8.788;2022-11-20T13:22:08;1.83;;;1.40;;
50815;SDS011;39717;47.324;8.788;2022-11-20T13:24:34;1.40;;;1.30;;
50815;SDS011;39717;47.324;8.788;2022-11-20T13:27:01;1.40;;;1.30;;
50815;SDS011;39717;47.324;8.788;2022-11-20T13:29:28;1.60;;;1.50;;
50815;SDS011;39717;47.324;8.788;2022-11-20T13:32:12;1.40;;;1.30;;
50815;SDS011;39717;47.324;8.788;2022-11-20T13:34:50;1.43;;;1.33;;
50815;SDS011;39717;47.324;8.788;2022-11-20T13:37:58;1.27;;;1.17;;
50815;SDS011;39717;47.324;8.788;2022-11-20T13:42:39;1.83;;;1.37;;
50815;SDS011;39717;47.324;8.788;2022-11-20T13:45:11;2.43;;;1.43;;
50815;SDS011;39717;47.324;8.788;2022-11-20T13:47:37;1.70;;;1.40;;
50815;SDS011;39717;47.324;8.788;2022-11-20T13:50:03;1.60;;;1.50;;
50815;SDS011;39717;47.324;8.788;2022-11-20T14:03:35;1.03;;;1.00;;
50815;SDS011;39717;47.324;8.788;2022-11-20T14:06:03;0.93;;;0.93;;
50815;SDS011;39717;47.324;8.788;2022-11-20T14:11:30;1.10;;;1.00;;
50815;SDS011;39717;47.324;8.788;2022-11-20T14:13:59;1.07;;;1.07;;
50815;SDS011;39717;47.324;8.788;2022-11-20T14:16:30;1.67;;;1.30;;
50815;SDS011;39717;47.324;8.788;2022-11-20T14:19:11;1.30;;;1.20;;
50815;SDS011;39717;47.324;8.788;2022-11-20T14:21:43;2.57;;;1.20;;
50815;SDS011;39717;47.324;8.788;2022-11-20T14:24:12;1.27;;;1.17;;
50815;SDS011;39717;47.324;8.788;2022-11-20T14:26:42;1.40;;;1.30;;
50815;SDS011;39717;47.324;8.788;2022-11-20T14:29:16;1.20;;;1.10;;
50815;SDS011;39717;47.324;8.788;2022-11-20T14:31:43;2.13;;;1.43;;
50815;SDS011;39717;47.324;8.788;2022-11-20T14:34:13;1.73;;;1.10;;
50815;SDS011;39717;47.324;8.788;2022-11-20T14:36:40;1.10;;;1.10;;
50815;SDS011;39717;47.324;8.788;2022-11-20T14:39:10;1.37;;;1.27;;
50815;SDS011;39717;47.324;8.788;2022-11-20T14:41:36;1.07;;;1.07;;
50815;SDS011;39717;47.324;8.788;2022-11-20T14:44:03;0.97;;;0.93;;
50815;SDS011;39717;47.324;8.788;2022-11-20T14:46:30;0.90;;;0.90;;
50815;SDS011;39717;47.324;8.788;2022-11-20T14:48:57;1.30;;;1.20;;
50815;SDS011;39717;47.324;8.788;2022-11-20T14:56:38;1.20;;;1.10;;
50815;SDS011;39717;47.324;8.788;2022-11-20T14:59:04;1.50;;;1.00;;
50815;SDS011;39717;47.324;8.788;2022-11-20T15:01:31;1.53;;;1.33;;
50815;SDS011;39717;47.324;8.788;2022-11-20T15:04:04;1.07;;;1.07;;
50815;SDS011;39717;47.324;8.788;2022-11-20T15:06:31;0.97;;;0.97;;
50815;SDS011;39717;47.324;8.788;2022-11-20T15:08:58;2.37;;;1.10;;
50815;SDS011;39717;47.324;8.788;2022-11-20T15:11:28;1.30;;;1.20;;
50815;SDS011;39717;47.324;8.788;2022-11-20T15:13:55;0.90;;;0.90;;
50815;SDS011;39717;47.324;8.788;2022-11-20T15:16:21;1.20;;;1.10;;
50815;SDS011;39717;47.324;8.788;2022-11-20T15:18:49;1.77;;;1.20;;
50815;SDS011;39717;47.324;8.788;2022-11-20T15:21:17;1.50;;;1.40;;
50815;SDS011;39717;47.324;8.788;2022-11-20T15:23:44;1.27;;;1.13;;
50815;SDS011;39717;47.324;8.788;2022-11-20T15:26:11;1.90;;;1.53;;
50815;SDS011;39717;47.324;8.788;2022-11-20T15:28:50;1.57;;;1.40;;
50815;SDS011;39717;47.324;8.788;2022-11-20T15:31:22;1.83;;;1.43;;
50815;SDS011;39717;47.324;8.788;2022-11-20T15:33:49;1.47;;;1.30;;
50815;SDS011;39717;47.324;8.788;2022-11-20T15:36:15;1.17;;;1.07;;
50815;SDS011;39717;47.324;8.788;2022-11-20T15:38:42;1.50;;;1.40;;
50815;SDS011;39717;47.324;8.788;2022-11-20T15:41:08;1.30;;;1.20;;
50815;SDS011;39717;47.324;8.788;2022-11-20T15:43:35;1.50;;;1.40;;
50815;SDS011;39717;47.324;8.788;2022-11-20T15:46:06;1.67;;;1.57;;
50815;SDS011;39717;47.324;8.788;2022-11-20T15:48:39;2.00;;;1.40;;
50815;SDS011;39717;47.324;8.788;2022-11-20T15:51:29;2.40;;;1.17;;
50815;SDS011;39717;47.324;8.788;2022-11-20T15:53:54;1.33;;;1.23;;
50815;SDS011;39717;47.324;8.788;2022-11-20T15:56:21;1.63;;;1.53;;
50815;SDS011;39717;47.324;8.788;2022-11-20T15:58:47;1.60;;;1.43;;
50815;SDS011;39717;47.324;8.788;2022-11-20T16:01:15;1.80;;;1.67;;
50815;SDS011;39717;47.324;8.788;2022-11-20T16:03:42;2.33;;;1.73;;
50815;SDS011;39717;47.324;8.788;2022-11-20T16:06:09;2.03;;;1.83;;
50815;SDS011;39717;47.324;8.788;2022-11-20T16:08:35;2.03;;;1.53;;
50815;SDS011;39717;47.324;8.788;2022-11-20T16:11:01;1.87;;;1.50;;
50815;SDS011;39717;47.324;8.788;2022-11-20T16:13:28;2.53;;;2.20;;
50815;SDS011;39717;47.324;8.788;2022-11-20T16:16:20;5.20;;;2.53;;
50815;SDS011;39717;47.324;8.788;2022-11-20T16:18:47;2.93;;;2.10;;
50815;SDS011;39717;47.324;8.788;2022-11-20T16:21:13;2.07;;;1.87;;
50815;SDS011;39717;47.324;8.788;2022-11-20T16:23:39;2.67;;;1.87;;